Time;durP1;ratioP1;P1;durP2;ratioP2;P2;SDS_P1;SDS_P2;PMS_P1;PMS_P2;Temp;Humidity;BMP_temperature;BMP_pressure;BME280_temperature;BME280_humidity;BME280_pressure;Samples;Min_cycle;Max_cycle;Signal;HPM_P1;HPM_P2
2023/09/05 00:01:30;;;;;;;5.28;3.55;;;20.40;99.90;;;;;;6249224;23;20008;-62
2023/09/05 00:03:57;;;;;;;6.00;3.88;;;20.40;99.90;;;;;;6248300;22;20008;-62
2023/09/05 00:06:24;;;;;;;6.13;3.92;;;20.40;99.90;;;;;;6249192;22;20474;-63
2023/09/05 00:08:49;;;;;;;6.93;4.05;;;20.40;99.90;;;;;;6248643;22;20054;-62
2023/09/05 00:11:15;;;;;;;5.40;3.92;;;20.30;99.90;;;;;;6247670;22;20000;-62
2023/09/05 00:13:40;;;;;;;4.80;4.05;;;20.20;99.90;;;;;;6247705;23;20007;-61
2023/09/05 00:16:06;;;;;;;5.30;3.75;;;20.20;99.90;;;;;;6245677;22;20016;-62
2023/09/05 00:18:32;;;;;;;5.18;3.63;;;20.20;99.90;;;;;;6247178;23;20031;-63
2023/09/05 00:20:57;;;;;;;6.18;4.60;;;20.10;99.90;;;;;;6247537;23;20449;-64
2023/09/05 00:23:23;;;;;;;4.20;3.42;;;20.10;99.90;;;;;;6247296;23;20019;-64
2023/09/05 00:25:49;;;;;;;4.80;4.25;;;20.10;99.90;;;;;;6247049;22;20071;-63
2023/09/05 00:28:14;;;;;;;5.57;3.80;;;20.10;99.90;;;;;;6248440;23;20035;-63
2023/09/05 00:30:40;;;;;;;6.40;3.45;;;20.00;99.90;;;;;;6248308;23;19996;-61
2023/09/05 00:33:05;;;;;;;5.45;4.03;;;20.00;99.90;;;;;;6247111;23;20083;-62
2023/09/05 00:35:31;;;;;;;4.68;3.65;;;20.00;99.90;;;;;;6247463;22;20035;-62
2023/09/05 00:37:58;;;;;;;6.30;4.00;;;20.00;99.90;;;;;;6247165;23;20030;-63
2023/09/05 00:40:26;;;;;;;5.13;4.03;;;19.90;99.90;;;;;;6247368;22;20284;-63
2023/09/05 00:42:52;;;;;;;4.57;3.55;;;19.90;99.90;;;;;;6245029;23;20451;-64
2023/09/05 00:45:18;;;;;;;4.38;3.92;;;19.90;99.90;;;;;;6245431;22;20099;-63
2023/09/05 00:47:47;;;;;;;8.88;3.60;;;19.80;99.90;;;;;;6245645;23;20007;-63
2023/09/05 00:50:18;;;;;;;4.40;3.92;;;19.80;99.90;;;;;;6247314;23;20378;-62
2023/09/05 00:52:44;;;;;;;6.70;4.13;;;19.80;99.90;;;;;;6247472;22;20004;-62
2023/09/05 00:55:11;;;;;;;4.22;3.60;;;19.80;99.90;;;;;;6247163;22;20066;-61
2023/09/05 00:57:37;;;;;;;5.40;3.80;;;19.70;99.90;;;;;;6246781;23;20075;-63
2023/09/05 01:00:05;;;;;;;4.60;3.63;;;19.70;99.90;;;;;;6245355;23;20000;-64
2023/09/05 01:02:31;;;;;;;5.72;3.83;;;19.60;99.90;;;;;;6247467;22;20003;-64
2023/09/05 01:04:56;;;;;;;3.97;3.40;;;19.60;99.90;;;;;;6245584;22;20012;-63
2023/09/05 01:07:32;;;;;;;5.70;3.75;;;19.50;99.90;;;;;;6245278;23;20009;-63
2023/09/05 01:10:08;;;;;;;4.32;3.58;;;19.50;99.90;;;;;;6246661;22;20563;-63
2023/09/05 01:12:34;;;;;;;5.95;3.65;;;19.50;99.90;;;;;;6246678;22;20004;-61
2023/09/05 01:14:59;;;;;;;5.70;4.03;;;19.40;99.90;;;;;;6246709;22;20457;-63
2023/09/05 01:17:25;;;;;;;4.68;3.67;;;19.30;99.90;;;;;;6245179;23;20000;-64
2023/09/05 01:19:55;;;;;;;5.93;3.53;;;19.30;99.90;;;;;;6246572;23;20001;-62
2023/09/05 01:22:35;;;;;;;5.60;3.90;;;19.30;99.90;;;;;;6246706;22;20008;-61
2023/09/05 01:25:01;;;;;;;5.03;3.35;;;19.20;99.90;;;;;;6247047;22;20446;-63
2023/09/05 01:27:28;;;;;;;4.50;3.40;;;19.20;99.90;;;;;;6246893;22;20380;-61
2023/09/05 01:29:55;;;;;;;5.90;3.58;;;19.20;99.90;;;;;;6246684;22;20006;-61
2023/09/05 01:32:21;;;;;;;4.35;3.40;;;19.20;99.90;;;;;;6245550;23;20054;-61
2023/09/05 01:34:47;;;;;;;4.93;3.70;;;19.20;99.90;;;;;;6246585;22;20016;-62
2023/09/05 01:37:14;;;;;;;5.40;3.75;;;19.20;99.90;;;;;;6246747;22;20007;-62
2023/09/05 01:39:40;;;;;;;5.18;3.42;;;19.20;99.90;;;;;;6244923;23;20447;-60
2023/09/05 01:42:06;;;;;;;4.13;3.30;;;19.20;99.90;;;;;;6246280;22;20004;-61
2023/09/05 01:44:36;;;;;;;5.03;3.35;;;19.10;99.90;;;;;;6247129;22;20390;-62
2023/09/05 01:47:04;;;;;;;7.00;3.40;;;19.10;99.90;;;;;;6246929;22;20004;-62
2023/09/05 01:49:30;;;;;;;3.63;3.20;;;19.10;99.90;;;;;;6246557;23;20079;-61
2023/09/05 01:51:55;;;;;;;4.13;3.50;;;19.00;99.90;;;;;;6246505;23;20070;-64
2023/09/05 01:56:51;;;;;;;4.57;3.15;;;19.00;99.90;;;;;;6245420;23;20047;-66
2023/09/05 01:59:19;;;;;;;4.07;3.00;;;19.00;99.90;;;;;;6245994;23;20326;-65
2023/09/05 02:01:45;;;;;;;4.30;3.20;;;19.00;99.90;;;;;;6219055;23;20087;-66
2023/09/05 02:04:10;;;;;;;5.03;3.35;;;18.90;99.90;;;;;;6218923;23;20004;-66
2023/09/05 02:06:36;;;;;;;7.20;3.40;;;18.90;99.90;;;;;;6245743;23;20000;-66
2023/09/05 02:09:01;;;;;;;5.05;3.17;;;18.90;99.90;;;;;;6245828;23;20032;-65
2023/09/05 02:11:27;;;;;;;4.43;3.42;;;18.90;99.90;;;;;;6245645;23;20094;-66
2023/09/05 02:13:52;;;;;;;5.40;3.08;;;18.80;99.90;;;;;;6219090;23;20008;-66
2023/09/05 02:16:23;;;;;;;4.95;3.22;;;18.80;99.90;;;;;;6245821;23;20423;-66
2023/09/05 02:18:49;;;;;;;5.78;3.20;;;18.80;99.90;;;;;;6246023;23;20004;-66
2023/09/05 02:21:15;;;;;;;4.40;3.27;;;18.70;99.90;;;;;;6245606;23;20054;-66
2023/09/05 02:23:41;;;;;;;;;;;18.70;99.90;;;;;;6219161;23;20278;-66
2023/09/05 02:26:08;;;;;;;4.57;3.47;;;18.60;99.90;;;;;;6245654;23;19900;-66
2023/09/05 02:28:53;;;;;;;4.25;3.45;;;18.60;99.90;;;;;;6245509;23;20275;-64
2023/09/05 02:31:19;;;;;;;4.07;3.15;;;18.50;99.90;;;;;;6182874;23;20033;-64
2023/09/05 02:33:44;;;;;;;4.27;3.27;;;18.40;99.90;;;;;;6182918;23;20552;-64
2023/09/05 02:36:18;;;;;;;6.88;2.90;;;18.40;99.90;;;;;;6182576;23;20232;-65
2023/09/05 02:38:44;;;;;;;6.57;3.38;;;18.40;99.90;;;;;;6183073;23;20012;-65
2023/09/05 02:41:10;;;;;;;;;;;18.40;99.90;;;;;;6157954;23;20076;-65
2023/09/05 02:43:36;;;;;;;5.47;3.38;;;18.30;99.90;;;;;;6158025;23;19915;-65
2023/09/05 02:46:02;;;;;;;4.30;3.17;;;18.30;99.90;;;;;;6157826;23;20005;-65
2023/09/05 02:48:27;;;;;;;4.75;3.70;;;18.30;99.90;;;;;;6182838;23;20552;-65
2023/09/05 02:51:03;;;;;;;4.10;2.90;;;18.30;99.90;;;;;;6182997;23;20043;-65
2023/09/05 02:53:29;;;;;;;4.60;3.27;;;18.20;99.90;;;;;;6183436;23;20773;-65
2023/09/05 02:55:54;;;;;;;5.82;3.00;;;18.20;99.90;;;;;;6182773;23;20323;-65
2023/09/05 02:58:20;;;;;;;4.67;3.47;;;18.20;99.90;;;;;;6184380;23;20013;-65
2023/09/05 03:00:47;;;;;;;4.07;2.92;;;18.10;99.90;;;;;;6159219;23;20012;-65
2023/09/05 03:03:13;;;;;;;5.35;2.88;;;18.10;99.90;;;;;;6239457;23;20039;-65
2023/09/05 03:05:38;;;;;;;5.72;3.40;;;18.10;99.90;;;;;;6218888;23;20004;-64
2023/09/05 03:08:06;;;;;;;6.17;3.47;;;18.10;99.90;;;;;;6218711;23;19996;-65
2023/09/05 03:10:31;;;;;;;5.40;3.40;;;18.00;99.90;;;;;;6245253;23;20661;-65
2023/09/05 03:12:57;;;;;;;8.43;3.17;;;18.10;99.90;;;;;;6245841;23;20000;-65
2023/09/05 03:15:23;;;;;;;4.70;2.95;;;18.00;99.90;;;;;;6251600;23;20678;-65
2023/09/05 03:17:48;;;;;;;5.78;3.50;;;18.00;99.90;;;;;;6254935;23;20026;-65
2023/09/05 03:20:15;;;;;;;4.47;3.37;;;18.00;99.90;;;;;;6253316;23;20036;-64
2023/09/05 03:22:41;;;;;;;4.85;3.00;;;18.00;99.90;;;;;;6251828;23;20231;-65
2023/09/05 03:25:07;;;;;;;5.60;3.20;;;18.00;99.90;;;;;;6246248;23;20381;-65
2023/09/05 03:27:32;;;;;;;4.05;2.72;;;17.90;99.90;;;;;;6218674;23;20083;-65
2023/09/05 03:29:58;;;;;;;5.33;3.00;;;17.90;99.90;;;;;;6245664;23;20053;-65
2023/09/05 03:32:23;;;;;;;3.63;2.77;;;17.90;99.90;;;;;;6245560;23;20254;-65
2023/09/05 03:34:51;;;;;;;5.70;3.30;;;17.90;99.90;;;;;;6220362;23;20125;-65
2023/09/05 03:37:16;;;;;;;3.83;2.80;;;18.00;99.90;;;;;;6247633;23;20024;-64
2023/09/05 03:39:42;;;;;;;5.25;2.60;;;17.90;99.90;;;;;;6248363;23;20079;-65
2023/09/05 03:42:08;;;;;;;8.90;3.10;;;17.80;99.90;;;;;;6247243;23;20338;-65
2023/09/05 03:44:34;;;;;;;4.25;2.90;;;17.80;99.90;;;;;;6247275;23;20012;-65
2023/09/05 03:47:00;;;;;;;4.10;2.90;;;17.80;99.90;;;;;;6220331;23;20079;-65
2023/09/05 03:49:25;;;;;;;6.00;3.00;;;17.70;99.90;;;;;;6247626;23;20315;-65
2023/09/05 03:51:52;;;;;;;3.88;2.60;;;17.70;99.90;;;;;;6247110;23;20326;-65
2023/09/05 03:54:18;;;;;;;4.53;3.20;;;17.70;99.90;;;;;;6247175;23;20004;-65
2023/09/05 03:56:43;;;;;;;7.38;2.75;;;17.60;99.90;;;;;;6219639;23;20082;-65
2023/09/05 03:59:09;;;;;;;4.40;2.83;;;17.60;99.90;;;;;;6220303;23;20004;-65
2023/09/05 04:01:34;;;;;;;4.00;2.83;;;17.60;99.90;;;;;;6247049;23;20001;-65
2023/09/05 04:04:00;;;;;;;4.97;3.30;;;17.60;99.90;;;;;;6220117;23;20247;-65
2023/09/05 04:06:25;;;;;;;3.87;3.20;;;17.60;99.90;;;;;;6246934;23;20361;-65
2023/09/05 04:08:51;;;;;;;3.73;3.00;;;17.60;99.90;;;;;;6247520;23;20251;-65
2023/09/05 04:11:16;;;;;;;6.80;2.87;;;17.70;99.90;;;;;;6219778;23;20031;-65
2023/09/05 04:13:42;;;;;;;4.33;2.80;;;17.60;99.90;;;;;;6220125;23;20270;-66
2023/09/05 04:16:07;;;;;;;4.93;2.83;;;17.60;99.90;;;;;;6246840;23;20378;-65
2023/09/05 04:18:34;;;;;;;4.68;3.05;;;17.60;99.90;;;;;;6247393;23;20030;-65
2023/09/05 04:21:00;;;;;;;3.95;2.63;;;17.60;99.90;;;;;;6246929;23;20366;-66
2023/09/05 04:23:25;;;;;;;6.13;3.00;;;17.50;99.90;;;;;;6247210;23;20127;-65
2023/09/05 04:26:01;;;;;;;3.80;2.40;;;17.60;99.90;;;;;;6249056;23;20087;-66
2023/09/05 04:28:28;;;;;;;4.80;2.97;;;17.60;99.90;;;;;;6252939;23;20019;-66
2023/09/05 04:30:55;;;;;;;;;;;17.60;99.90;;;;;;6254559;23;20027;-66
2023/09/05 04:33:22;;;;;;;6.13;3.17;;;17.50;99.90;;;;;;6248230;23;19899;-66
2023/09/05 04:35:48;;;;;;;4.85;2.83;;;17.40;99.90;;;;;;6219963;23;20062;-65
2023/09/05 04:38:13;;;;;;;3.20;2.60;;;17.50;99.90;;;;;;6246802;23;20312;-65
2023/09/05 04:40:39;;;;;;;4.50;2.77;;;17.50;99.90;;;;;;6246292;23;20249;-66
2023/09/05 04:43:05;;;;;;;4.43;2.53;;;17.40;99.90;;;;;;6219574;23;20000;-66
2023/09/05 04:45:30;;;;;;;4.68;2.90;;;17.40;99.90;;;;;;6219577;23;20235;-65
2023/09/05 04:47:56;;;;;;;5.10;3.33;;;17.40;99.90;;;;;;6246502;23;20030;-65
2023/09/05 04:50:21;;;;;;;4.07;2.80;;;17.40;99.90;;;;;;6246691;23;20231;-66
2023/09/05 04:52:47;;;;;;;4.85;2.50;;;17.40;99.90;;;;;;6219641;23;20004;-65
2023/09/05 04:55:13;;;;;;;4.43;3.20;;;17.50;99.90;;;;;;6246569;23;20012;-66
2023/09/05 04:57:42;;;;;;;3.90;2.85;;;17.50;99.90;;;;;;6246819;23;20720;-65
2023/09/05 05:00:08;;;;;;;4.93;3.30;;;17.50;99.90;;;;;;6246945;23;20071;-65
2023/09/05 05:02:34;;;;;;;4.53;2.78;;;17.50;99.90;;;;;;6246242;23;20335;-65
2023/09/05 05:05:00;;;;;;;;;;;17.50;99.90;;;;;;6246908;23;20439;-66
2023/09/05 05:07:26;;;;;;;4.32;2.78;;;17.50;99.90;;;;;;6246581;23;19925;-66
2023/09/05 05:09:51;;;;;;;4.53;2.85;;;17.50;99.90;;;;;;6246539;23;20004;-66
2023/09/05 05:12:17;;;;;;;10.82;2.85;;;17.40;99.90;;;;;;6219406;23;20428;-66
2023/09/05 05:14:43;;;;;;;3.88;2.80;;;17.50;99.90;;;;;;6246221;23;20066;-66
2023/09/05 05:17:08;;;;;;;6.97;2.83;;;17.50;99.90;;;;;;6246590;23;20008;-65
2023/09/05 05:19:35;;;;;;;4.85;2.97;;;17.50;99.90;;;;;;6247428;23;20000;-65
2023/09/05 05:22:00;;;;;;;7.43;2.60;;;17.60;99.90;;;;;;6247045;23;20096;-65
2023/09/05 05:24:26;;;;;;;4.40;3.13;;;17.60;99.90;;;;;;6246660;23;20004;-66
2023/09/05 05:26:51;;;;;;;3.47;2.60;;;17.60;99.90;;;;;;6246179;23;20313;-66
2023/09/05 05:29:17;;;;;;;4.50;2.77;;;17.60;99.90;;;;;;6219550;23;20298;-66
2023/09/05 05:31:42;;;;;;;6.43;2.92;;;17.60;99.90;;;;;;6246333;23;20368;-66
2023/09/05 05:34:08;;;;;;;4.63;2.85;;;17.60;99.90;;;;;;6246494;23;20008;-66
2023/09/05 05:36:34;;;;;;;4.63;2.70;;;17.60;99.90;;;;;;6245757;23;20000;-66
2023/09/05 05:39:01;;;;;;;4.00;2.63;;;17.50;99.90;;;;;;6246462;23;20473;-66
2023/09/05 05:41:28;;;;;;;3.53;2.67;;;17.50;99.90;;;;;;6253763;23;20126;-67
2023/09/05 05:43:57;;;;;;;2.75;2.30;;;17.50;99.90;;;;;;6225156;23;20074;-67
2023/09/05 05:46:23;;;;;;;3.88;2.75;;;17.60;99.90;;;;;;6222752;23;20083;-67
2023/09/05 05:48:48;;;;;;;3.80;2.90;;;17.70;99.90;;;;;;6223266;23;20008;-67
2023/09/05 05:51:14;;;;;;;6.75;2.90;;;17.70;99.90;;;;;;6249335;23;19996;-67
2023/09/05 05:53:42;;;;;;;;;;;17.90;99.90;;;;;;6253042;23;20000;-67
2023/09/05 05:56:08;;;;;;;;;;;17.90;99.90;;;;;;6249377;23;19907;-67
2023/09/05 05:58:34;;;;;;;7.85;2.83;;;18.00;99.90;;;;;;6219274;23;20317;-67
2023/09/05 06:01:00;;;;;;;;;;;18.00;99.90;;;;;;6246765;23;20062;-67
2023/09/05 06:03:25;;;;;;;5.20;2.83;;;18.10;99.90;;;;;;6244293;23;19994;-68
2023/09/05 06:05:51;;;;;;;4.03;2.70;;;18.10;99.90;;;;;;6245611;23;20432;-67
2023/09/05 06:08:17;;;;;;;4.32;2.55;;;18.20;99.90;;;;;;6245956;23;20066;-66
2023/09/05 06:10:43;;;;;;;4.78;2.80;;;18.30;99.90;;;;;;6245067;23;19992;-66
2023/09/05 06:13:11;;;;;;;4.43;2.85;;;18.30;99.90;;;;;;6218030;23;20432;-66
2023/09/05 06:15:37;;;;;;;4.00;2.63;;;18.40;99.90;;;;;;6245713;23;20007;-66
2023/09/05 06:18:04;;;;;;;3.42;2.80;;;18.40;99.90;;;;;;6245874;23;20012;-67
2023/09/05 06:20:32;;;;;;;5.72;2.30;;;18.50;99.90;;;;;;6219141;23;20086;-67
2023/09/05 06:22:58;;;;;;;3.92;2.60;;;18.50;99.90;;;;;;6217869;23;20011;-65
2023/09/05 06:25:24;;;;;;;3.75;2.72;;;18.50;99.90;;;;;;6244348;23;19996;-66
2023/09/05 06:27:50;;;;;;;4.22;2.85;;;18.60;99.90;;;;;;6246699;23;20514;-66
2023/09/05 06:30:16;;;;;;;4.13;2.88;;;18.60;99.90;;;;;;6246098;23;20000;-66
2023/09/05 06:32:42;;;;;;;;;;;18.60;99.90;;;;;;6247010;23;19997;-66
2023/09/05 06:35:09;;;;;;;7.60;2.67;;;18.70;99.90;;;;;;6246260;23;20341;-65
2023/09/05 06:37:36;;;;;;;4.55;2.75;;;18.80;99.90;;;;;;6246996;23;20015;-66
2023/09/05 06:40:06;;;;;;;5.05;2.58;;;18.80;99.90;;;;;;6218586;23;20011;-66
2023/09/05 06:42:32;;;;;;;4.68;2.53;;;18.90;99.90;;;;;;6216208;23;20008;-66
2023/09/05 06:44:58;;;;;;;4.55;2.80;;;19.00;99.90;;;;;;6244520;23;20331;-66
2023/09/05 06:47:23;;;;;;;6.25;2.55;;;19.10;99.90;;;;;;6245240;23;20023;-66
2023/09/05 06:49:49;;;;;;;4.85;2.63;;;19.20;99.90;;;;;;6246095;23;20050;-67
2023/09/05 06:52:16;;;;;;;3.38;2.22;;;19.20;99.90;;;;;;6244976;23;20327;-66
2023/09/05 06:54:42;;;;;;;4.57;2.40;;;19.40;99.90;;;;;;6217880;23;20011;-66
2023/09/05 06:57:10;;;;;;;5.22;2.65;;;19.40;99.90;;;;;;6245467;23;20012;-66
2023/09/05 06:59:36;;;;;;;4.80;2.60;;;19.40;99.90;;;;;;6218941;23;20031;-67
2023/09/05 07:02:02;;;;;;;4.03;2.53;;;19.60;99.90;;;;;;6248677;23;20427;-67
2023/09/05 07:04:31;;;;;;;4.70;2.38;;;19.60;99.90;;;;;;6247891;23;20075;-66
2023/09/05 07:07:01;;;;;;;7.50;2.53;;;19.70;99.90;;;;;;6247137;23;20330;-66
2023/09/05 07:09:26;;;;;;;4.85;2.47;;;19.80;99.90;;;;;;6248159;23;20004;-66
2023/09/05 07:11:52;;;;;;;4.32;2.55;;;19.80;99.90;;;;;;6247692;23;20025;-65
2023/09/05 07:14:18;;;;;;;4.78;2.60;;;19.90;99.90;;;;;;6248221;23;20000;-66
2023/09/05 07:16:43;;;;;;;5.30;2.63;;;20.00;99.90;;;;;;6247741;23;20004;-66
2023/09/05 07:19:09;;;;;;;4.47;2.58;;;20.20;99.90;;;;;;6247242;23;20004;-66
2023/09/05 07:21:37;;;;;;;4.82;2.80;;;20.30;99.90;;;;;;6247733;23;20028;-68
2023/09/05 07:24:03;;;;;;;3.00;2.25;;;20.30;99.90;;;;;;6247853;23;20343;-67
2023/09/05 07:26:28;;;;;;;4.47;2.42;;;20.40;99.90;;;;;;6248790;23;20001;-67
2023/09/05 07:28:54;;;;;;;5.32;2.80;;;20.50;99.90;;;;;;6249631;23;20014;-66
2023/09/05 07:31:19;;;;;;;5.10;2.65;;;20.60;99.90;;;;;;6223563;23;20083;-67
2023/09/05 07:33:45;;;;;;;5.60;2.70;;;20.70;99.80;;;;;;6226381;23;20057;-66
2023/09/05 07:36:11;;;;;;;4.97;2.30;;;20.80;99.40;;;;;;6247584;23;20027;-66
2023/09/05 07:38:36;;;;;;;3.85;2.40;;;20.90;99.10;;;;;;6220901;23;20012;-65
2023/09/05 07:41:03;;;;;;;6.03;2.60;;;21.00;98.90;;;;;;6248493;23;20031;-65
2023/09/05 07:43:30;;;;;;;3.55;2.28;;;21.10;98.90;;;;;;6246861;23;20008;-66
2023/09/05 07:45:55;;;;;;;4.63;2.47;;;21.20;98.70;;;;;;6219934;23;20312;-66
2023/09/05 07:48:21;;;;;;;4.18;2.15;;;21.30;98.60;;;;;;6248369;23;20007;-66
2023/09/05 07:50:46;;;;;;;3.65;2.05;;;21.50;98.20;;;;;;6221072;23;20008;-61
2023/09/05 07:53:12;;;;;;;4.07;2.40;;;21.50;98.10;;;;;;6248378;23;20020;-65
2023/09/05 07:55:38;;;;;;;3.38;2.20;;;21.60;98.10;;;;;;6232665;22;20020;-63
2023/09/05 07:58:04;;;;;;;5.68;2.65;;;21.70;98.00;;;;;;6275087;22;20000;-62
2023/09/05 08:00:29;;;;;;;4.25;2.10;;;21.70;97.90;;;;;;6278136;22;20007;-60
2023/09/05 08:02:55;;;;;;;6.78;2.30;;;21.80;97.70;;;;;;6277911;22;20075;-64
2023/09/05 08:05:21;;;;;;;3.22;2.22;;;21.90;97.50;;;;;;6268898;22;20008;-65
2023/09/05 08:07:47;;;;;;;3.90;2.10;;;21.90;97.40;;;;;;6247360;22;19996;-64
2023/09/05 08:10:12;;;;;;;2.83;2.15;;;22.10;97.30;;;;;;6246994;23;20071;-65
2023/09/05 08:12:38;;;;;;;3.65;2.30;;;22.10;97.30;;;;;;6247388;23;20024;-64
2023/09/05 08:15:05;;;;;;;3.83;2.35;;;22.20;97.20;;;;;;6247144;22;20000;-66
2023/09/05 08:17:31;;;;;;;5.00;2.40;;;22.30;96.90;;;;;;6247207;22;20000;-64
2023/09/05 08:19:57;;;;;;;;;;;22.40;96.80;;;;;;6247305;22;20011;-64
2023/09/05 08:22:23;;;;;;;4.22;2.00;;;22.40;96.80;;;;;;6246972;22;19899;-64
2023/09/05 08:24:52;;;;;;;4.47;2.40;;;22.50;96.80;;;;;;6247023;22;20000;-66
2023/09/05 08:27:19;;;;;;;4.70;2.33;;;22.60;96.70;;;;;;6246790;22;20334;-64
2023/09/05 08:29:45;;;;;;;3.22;2.50;;;22.70;96.50;;;;;;6247557;22;20071;-67
2023/09/05 08:32:11;;;;;;;4.28;2.65;;;22.80;96.40;;;;;;6247573;23;20019;-67
2023/09/05 08:34:40;;;;;;;6.55;2.97;;;22.90;96.20;;;;;;6247578;22;20023;-67
2023/09/05 08:37:06;;;;;;;3.97;2.53;;;23.10;96.30;;;;;;6245289;22;20012;-66
2023/09/05 08:39:32;;;;;;;5.10;2.40;;;23.20;95.90;;;;;;6247318;23;20078;-60
2023/09/05 08:41:57;;;;;;;;;;;23.50;95.60;;;;;;6247285;23;20004;-60
2023/09/05 08:44:23;;;;;;;7.68;2.85;;;23.80;95.40;;;;;;6247219;23;19982;-61
2023/09/05 08:46:50;;;;;;;;;;;24.30;95.00;;;;;;6247880;22;20003;-61
2023/09/05 08:49:15;;;;;;;5.25;1.80;;;26.40;93.00;;;;;;6247216;22;19945;-59
2023/09/05 08:51:41;;;;;;;5.28;2.17;;;29.20;90.10;;;;;;6247553;23;20000;-61
2023/09/05 08:54:13;;;;;;;3.67;2.85;;;31.80;83.80;;;;;;6247169;22;20150;-61
2023/09/05 08:56:39;;;;;;;3.83;1.88;;;32.90;79.00;;;;;;6246706;22;20069;-61
2023/09/05 08:59:05;;;;;;;7.60;2.28;;;33.50;76.90;;;;;;6246934;22;20086;-61
2023/09/05 09:01:32;;;;;;;2.90;2.15;;;34.70;73.80;;;;;;6247210;22;20011;-59
2023/09/05 09:04:00;;;;;;;6.78;2.20;;;35.70;71.70;;;;;;6247287;22;20008;-63
2023/09/05 09:06:26;;;;;;;3.47;2.00;;;36.50;70.00;;;;;;6245501;22;20485;-61
2023/09/05 09:08:52;;;;;;;2.97;2.15;;;36.40;68.50;;;;;;6251042;22;19996;-61
2023/09/05 09:11:22;;;;;;;6.53;2.08;;;36.90;67.80;;;;;;6249875;22;20347;-59
2023/09/05 09:13:57;;;;;;;6.18;2.10;;;37.40;66.70;;;;;;6246946;22;20339;-59
2023/09/05 09:16:23;;;;;;;3.08;2.00;;;38.00;65.40;;;;;;6246956;22;20015;-61
2023/09/05 09:18:49;;;;;;;5.22;2.30;;;38.50;64.40;;;;;;6246530;23;20063;-60
2023/09/05 09:21:18;;;;;;;4.38;1.83;;;39.20;63.30;;;;;;6246868;22;20001;-61
2023/09/05 09:23:44;;;;;;;3.08;1.70;;;38.50;62.80;;;;;;6246579;22;20058;-66
2023/09/05 09:26:10;;;;;;;2.97;1.77;;;38.00;63.00;;;;;;6244537;22;20087;-66
2023/09/05 09:28:37;;;;;;;3.58;2.22;;;38.00;62.20;;;;;;6245389;23;20031;-70
2023/09/05 09:31:12;;;;;;;5.50;2.10;;;37.70;63.30;;;;;;6245691;23;20009;-67
2023/09/05 09:33:38;;;;;;;3.10;2.20;;;38.70;63.60;;;;;;6247416;22;20334;-68
2023/09/05 09:36:04;;;;;;;8.63;2.17;;;39.70;61.90;;;;;;6246855;22;20312;-67
2023/09/05 09:38:31;;;;;;;3.33;2.30;;;40.30;60.00;;;;;;6246737;22;20338;-65
2023/09/05 09:41:01;;;;;;;5.10;2.00;;;39.50;60.20;;;;;;6246662;22;20023;-68
2023/09/05 09:43:27;;;;;;;3.10;2.10;;;39.20;60.20;;;;;;6246200;22;20027;-67
2023/09/05 09:45:53;;;;;;;4.75;1.88;;;38.60;60.60;;;;;;6244623;22;20403;-62
2023/09/05 09:48:21;;;;;;;7.65;2.00;;;38.30;61.60;;;;;;6246313;23;20058;-62
2023/09/05 09:50:48;;;;;;;5.20;2.17;;;38.30;61.50;;;;;;6246805;22;20056;-62
2023/09/05 09:53:18;;;;;;;7.72;2.28;;;37.50;61.70;;;;;;6246878;22;20000;-61
2023/09/05 09:55:44;;;;;;;3.58;1.88;;;37.50;62.00;;;;;;6246173;22;20027;-61
2023/09/05 09:58:14;;;;;;;7.68;2.10;;;37.30;62.20;;;;;;6246128;23;20007;-65
2023/09/05 10:00:45;;;;;;;2.65;1.85;;;37.30;62.60;;;;;;6246754;22;20315;-65
2023/09/05 10:03:13;;;;;;;4.22;2.00;;;37.30;62.20;;;;;;6246663;22;20000;-66
2023/09/05 10:05:41;;;;;;;3.25;2.50;;;37.00;62.80;;;;;;6246229;22;20000;-66
2023/09/05 10:08:09;;;;;;;6.32;1.83;;;37.00;62.40;;;;;;6246822;22;20004;-66
2023/09/05 10:10:41;;;;;;;3.75;2.17;;;36.70;62.50;;;;;;6245606;23;20060;-67
2023/09/05 10:13:08;;;;;;;2.25;1.77;;;36.30;63.00;;;;;;6247429;22;20000;-69
2023/09/05 10:15:39;;;;;;;4.22;2.00;;;35.90;63.10;;;;;;6247725;22;20448;-67
2023/09/05 10:18:10;;;;;;;5.53;2.38;;;36.20;62.80;;;;;;6247309;22;20023;-69
2023/09/05 10:20:39;;;;;;;3.55;2.20;;;36.30;63.10;;;;;;6246919;22;19996;-69
2023/09/05 10:23:06;;;;;;;5.10;2.30;;;36.10;63.10;;;;;;6245536;23;20004;-66
2023/09/05 10:25:35;;;;;;;3.85;2.00;;;36.50;63.10;;;;;;6249644;22;19997;-65
2023/09/05 10:28:01;;;;;;;3.92;2.15;;;36.30;62.80;;;;;;6249863;22;20364;-68
2023/09/05 10:30:28;;;;;;;2.83;1.80;;;36.60;62.10;;;;;;6250426;23;20004;-68
2023/09/05 10:32:53;;;;;;;4.35;2.13;;;36.60;62.10;;;;;;6250171;22;20087;-66
2023/09/05 10:35:20;;;;;;;2.55;1.92;;;36.60;62.00;;;;;;6248931;22;19996;-63
2023/09/05 10:38:01;;;;;;;5.93;2.05;;;36.70;61.80;;;;;;6246119;23;20049;-63
2023/09/05 10:40:35;;;;;;;2.08;1.80;;;36.50;62.20;;;;;;6245980;22;20000;-64
2023/09/05 10:43:03;;;;;;;5.72;2.88;;;36.40;61.90;;;;;;6243497;23;20026;-64
2023/09/05 10:45:31;;;;;;;2.97;1.70;;;37.00;61.60;;;;;;6242435;22;20004;-65
2023/09/05 10:48:09;;;;;;;3.80;2.05;;;36.80;61.40;;;;;;6245441;22;20381;-65
2023/09/05 10:51:07;;;;;;;4.85;2.10;;;37.40;61.30;;;;;;6246229;22;20000;-64
2023/09/05 10:53:44;;;;;;;3.28;1.92;;;37.80;60.60;;;;;;6247028;22;20062;-63
2023/09/05 10:56:40;;;;;;;5.15;1.80;;;37.20;60.70;;;;;;6246498;22;20074;-63
2023/09/05 10:59:25;;;;;;;;;;;37.70;60.80;;;;;;6246635;23;20004;-64
2023/09/05 11:01:54;;;;;;;2.38;1.88;;;38.20;60.30;;;;;;6247614;23;19914;-64
2023/09/05 11:04:29;;;;;;;5.75;2.30;;;38.40;59.50;;;;;;6247580;22;20004;-64
2023/09/05 11:06:59;;;;;;;2.80;1.55;;;37.40;59.70;;;;;;6245978;22;20039;-65
2023/09/05 11:09:25;;;;;;;3.22;1.67;;;35.50;61.50;;;;;;6244456;23;20007;-64
2023/09/05 11:11:53;;;;;;;3.95;1.85;;;33.20;63.80;;;;;;6247964;23;20004;-65
2023/09/05 11:14:30;;;;;;;5.43;2.05;;;31.70;65.80;;;;;;6248832;22;20004;-64
2023/09/05 11:16:59;;;;;;;5.95;2.50;;;30.50;67.60;;;;;;6244271;22;20008;-64
2023/09/05 11:19:40;;;;;;;3.25;2.08;;;29.70;69.30;;;;;;6243821;23;20007;-64
2023/09/05 11:22:22;;;;;;;4.30;2.00;;;29.10;70.40;;;;;;6249503;22;20439;-64
2023/09/05 11:24:54;;;;;;;2.63;1.73;;;28.90;71.10;;;;;;6248452;22;20032;-65
2023/09/05 11:27:34;;;;;;;4.90;2.38;;;28.70;71.40;;;;;;6246020;22;20375;-65
2023/09/05 11:30:11;;;;;;;3.30;1.90;;;28.60;71.90;;;;;;6244989;23;20004;-65
2023/09/05 11:32:42;;;;;;;4.38;1.70;;;28.50;72.30;;;;;;6250547;22;20095;-64
2023/09/05 11:35:15;;;;;;;4.90;1.95;;;28.40;72.30;;;;;;6247642;22;20073;-65
2023/09/05 11:37:45;;;;;;;3.55;1.92;;;28.40;72.80;;;;;;6246039;22;20010;-65
2023/09/05 11:40:37;;;;;;;4.13;2.00;;;28.30;72.40;;;;;;6246018;22;20000;-64
2023/09/05 11:43:11;;;;;;;4.70;1.92;;;28.30;72.70;;;;;;6250291;22;20011;-64
2023/09/05 11:45:45;;;;;;;2.15;1.52;;;28.30;72.50;;;;;;6247147;22;19996;-64
2023/09/05 11:48:14;;;;;;;2.55;1.52;;;28.30;72.40;;;;;;6246102;22;20430;-64
2023/09/05 11:50:41;;;;;;;5.63;1.70;;;28.20;72.10;;;;;;6245943;22;20000;-64
2023/09/05 11:53:11;;;;;;;3.65;1.90;;;28.20;72.30;;;;;;6246083;22;20062;-64
2023/09/05 11:55:37;;;;;;;2.33;1.70;;;28.20;72.20;;;;;;6247742;22;20004;-64
2023/09/05 11:58:05;;;;;;;4.15;1.88;;;28.20;72.50;;;;;;6247156;22;20081;-63
2023/09/05 12:00:32;;;;;;;5.75;1.75;;;28.30;72.30;;;;;;6247774;22;20067;-64
2023/09/05 12:03:00;;;;;;;4.93;1.87;;;28.30;71.70;;;;;;6247823;22;20000;-65
2023/09/05 12:05:26;;;;;;;3.55;1.67;;;28.30;71.90;;;;;;6248636;22;20000;-65
2023/09/05 12:07:56;;;;;;;2.67;1.80;;;28.30;71.50;;;;;;6250649;22;20542;-65
2023/09/05 12:10:25;;;;;;;3.45;2.10;;;28.30;71.90;;;;;;6250120;22;19996;-64
2023/09/05 12:12:53;;;;;;;2.35;1.70;;;28.40;71.80;;;;;;6248572;22;20004;-64
2023/09/05 12:15:34;;;;;;;2.55;1.63;;;28.50;71.90;;;;;;6248528;22;20015;-64
2023/09/05 12:18:05;;;;;;;6.50;1.83;;;28.60;71.30;;;;;;6248614;22;20091;-64
2023/09/05 12:20:34;;;;;;;4.10;1.67;;;28.80;71.20;;;;;;6248164;22;20091;-65
2023/09/05 12:23:02;;;;;;;4.25;1.58;;;28.80;71.00;;;;;;6245954;23;20487;-65
2023/09/05 12:25:28;;;;;;;4.25;1.35;;;28.70;70.90;;;;;;6247515;22;20071;-65
2023/09/05 12:27:55;;;;;;;3.28;1.70;;;28.60;71.30;;;;;;6247420;22;20398;-65
2023/09/05 12:30:32;;;;;;;2.67;1.48;;;28.70;71.50;;;;;;6247949;22;20064;-65
2023/09/05 12:33:03;;;;;;;2.97;1.77;;;28.70;71.60;;;;;;6247550;22;20030;-64
2023/09/05 12:35:31;;;;;;;2.25;1.45;;;28.80;70.80;;;;;;6247930;22;20000;-65
2023/09/05 12:37:59;;;;;;;3.47;1.65;;;28.80;70.70;;;;;;6247625;22;20004;-63
2023/09/05 12:40:26;;;;;;;5.88;1.70;;;28.90;70.90;;;;;;6247050;22;20000;-65
2023/09/05 12:42:51;;;;;;;6.72;2.00;;;28.80;71.10;;;;;;6246797;22;20000;-65
2023/09/05 12:45:18;;;;;;;4.10;2.00;;;28.80;71.40;;;;;;6247165;22;20004;-64
2023/09/05 12:47:49;;;;;;;3.80;1.50;;;28.90;71.80;;;;;;6247672;22;20308;-63
2023/09/05 12:50:15;;;;;;;5.25;1.95;;;28.90;71.30;;;;;;6247562;22;20347;-64
2023/09/05 12:52:43;;;;;;;5.22;1.50;;;29.00;70.90;;;;;;6247200;22;20005;-64
2023/09/05 12:55:12;;;;;;;2.78;1.77;;;29.00;70.60;;;;;;6246987;22;20008;-64